Detall de PIREP

Printer-friendly versionPDF version

[2014/05/25 09:17:00]
Flight IATA:CT0001
Pilot Number:042
Company ICAO:CAT
Aircraft Type:A320/E
PAX:96
Departing Airport: LEAL
Destination Airport: LEGE
Alternate Airport:LEBL
Online: VATSIM
Route:SOPET B28 EBROX W111 VNV N861 LATRO H110 MAMUK
Flight Level:F340
No Slew and time accel
No pause
Crash detect
Detect pilot in Cockpit between each 30 and 45 minutes
09:17 Zero fuel Weight: 124281 Lbs, Fuel Weight: 41986 Lbs
09:17 VATSIM:LEAL 250900Z 18004KT 110V250 9999 FEW020 21/11 Q1016 NOSIG
09:17 VATSIM:LEGE 250900Z 21004KT 160V260 9999 FEW040 BKN080 18/09 Q1017
09:20 Parking Brakes off
09:34 Take-off
09:34 Take off Weight: 165088 Lbs
09:34 Wind: 179º @ 004 Knots Heading: 099º
09:34 POS N38º 16´ 48´´ W000º 32´ 39´´
09:34 Flaps:3 at 144 Knots
09:34 Gear Up: 144 Knots
09:35 Flaps:2 at 171 Knots
09:35 Flaps:0 at 169 Knots
09:49 Wind:156º@002 Knots Heading: 355º Ground Speed: 522 Knots Altitude 32007 ft
09:50 TOC
09:50 Fuel Weight: 37185 Lb
10:03 TOD
10:03 Fuel Weight: 36061 Lb
10:04 Wind:124º@007 Knots Heading: 021º Ground Speed: 513 Knots Altitude 31443 ft
10:19 Wind:133º@004 Knots Heading: 080º Ground Speed: 292 Knots Altitude 13815 ft
10:26 Flaps:1 at 219 Knots
10:27 Flaps:3 at 208 Knots
10:30 Flaps:4 at 168 Knots
10:30 Flaps:5 at 168 Knots
10:30 Gear Down: 168 Knots
10:34 Wind:199º@004 Knots Heading: 195º Ground Speed: 158 Knots Altitude 492 ft
10:34 TouchDown:Rate -316 ft/min Speed: 152 Knots
10:34 VATSIM:LEGE 251000Z 21005KT 180V250 9999 FEW040 BKN080 19/10 Q1016
10:34 Land
10:34 Wind:199º@004 Knots
10:34 Heading: 195º
10:34 Flight Duration: 01:00
10:34 Landing Weight: 158680 Lbs
10:34 POS N41º 54´ 00´´ E002º 45´ 36´´
10:37 Parking brakes on
10:37 Block to Block Duration: 01:17
10:37 Final Fuel: 33972 Lbls
10:37 Spent Fuel: 8013 Lbls
10:37 Flight Length: 378 NM
10:37 TOD Land Length: 154 NM

Exportar CSV

Powered by Drupal - Modified by Danger4k